createdAt,value
2023-04-21T00:02:43.451Z,10.45
2023-04-21T00:08:05.408Z,10.41
2023-04-21T00:13:27.203Z,10.47
2023-04-21T00:18:49.239Z,10.41
2023-04-21T00:24:11.396Z,10.31
2023-04-21T00:29:33.257Z,10.23
2023-04-21T00:34:55.101Z,10.10
2023-04-21T00:40:17.080Z,10.05
2023-04-21T00:45:38.892Z,9.94
2023-04-21T00:51:00.771Z,9.89
2023-04-21T00:56:23.313Z,9.82
2023-04-21T01:01:45.257Z,9.60
2023-04-21T01:07:07.125Z,9.39
2023-04-21T01:12:29.052Z,9.38
2023-04-21T01:17:50.868Z,9.24
2023-04-21T01:23:12.737Z,9.28
2023-04-21T01:28:34.730Z,9.13
2023-04-21T01:33:56.577Z,8.95
2023-04-21T01:39:18.528Z,8.97
2023-04-21T01:44:40.499Z,8.93
2023-04-21T01:50:02.345Z,8.98
2023-04-21T01:55:24.955Z,8.87
2023-04-21T02:00:46.851Z,8.60
2023-04-21T02:06:08.767Z,8.59
2023-04-21T02:11:30.634Z,8.66
2023-04-21T02:16:53.126Z,8.64
2023-04-21T02:22:15.049Z,8.48
2023-04-21T02:27:36.949Z,8.51
2023-04-21T02:32:58.893Z,8.42
2023-04-21T02:38:20.873Z,8.44
2023-04-21T02:43:42.712Z,8.39
2023-04-21T02:49:04.564Z,8.30
2023-04-21T02:54:26.394Z,8.28
2023-04-21T02:59:48.241Z,8.17
2023-04-21T03:05:10.399Z,8.14
2023-04-21T03:10:32.244Z,8.08
2023-04-21T03:15:54.104Z,8.06
2023-04-21T03:21:15.996Z,7.97
2023-04-21T03:26:39.563Z,7.77
2023-04-21T03:32:01.614Z,7.94
2023-04-21T03:37:23.552Z,8.06
2023-04-21T03:42:45.424Z,8.07
2023-04-21T03:48:07.309Z,8.12
2023-04-21T03:53:29.280Z,8.37
2023-04-21T03:58:51.305Z,8.84
2023-04-21T04:04:13.404Z,9.42
2023-04-21T04:09:35.643Z,9.56
2023-04-21T04:14:57.525Z,10.04
2023-04-21T04:20:19.426Z,10.51
2023-04-21T04:25:41.332Z,10.67
2023-04-21T04:31:03.322Z,11.11
2023-04-21T04:36:25.247Z,11.34
2023-04-21T04:41:47.202Z,11.42
2023-04-21T04:47:09.188Z,11.89
2023-04-21T04:52:31.442Z,12.44
2023-04-21T04:57:53.343Z,12.81
2023-04-21T05:03:15.416Z,13.03
2023-04-21T05:08:37.429Z,12.59
2023-04-21T05:13:59.298Z,13.66
2023-04-21T05:19:21.155Z,13.21
2023-04-21T05:24:42.985Z,13.87
2023-04-21T05:30:05.237Z,14.50
2023-04-21T05:35:27.126Z,14.19
2023-04-21T05:40:55.857Z,14.76
2023-04-21T05:46:17.802Z,15.83
2023-04-21T05:51:39.684Z,16.25
2023-04-21T05:57:01.526Z,17.05
2023-04-21T06:02:23.512Z,17.51
2023-04-21T06:07:45.468Z,18.30
2023-04-21T06:13:07.367Z,18.34
2023-04-21T06:18:29.312Z,19.21
2023-04-21T06:23:51.839Z,20.26
2023-04-21T06:29:13.735Z,19.37
2023-04-21T06:34:35.631Z,20.05
2023-04-21T06:39:57.556Z,20.71
2023-04-21T06:45:19.469Z,22.50
2023-04-21T06:50:41.445Z,21.87
2023-04-21T06:56:03.733Z,22.15
2023-04-21T07:01:25.597Z,23.86
2023-04-21T07:06:47.951Z,24.21
2023-04-21T07:12:09.791Z,25.90
2023-04-21T07:17:31.784Z,25.35
2023-04-21T07:22:53.732Z,27.17
2023-04-21T07:28:15.565Z,25.10
2023-04-21T07:33:37.402Z,24.37
2023-04-21T07:38:59.231Z,26.58
2023-04-21T07:44:21.115Z,24.72
2023-04-21T07:49:42.977Z,28.46
2023-04-21T07:55:05.058Z,30.02
2023-04-21T08:00:26.911Z,30.05
2023-04-21T08:05:48.945Z,27.55
2023-04-21T08:11:11.209Z,29.33
2023-04-21T08:16:33.222Z,27.24
2023-04-21T08:21:55.281Z,26.86
2023-04-21T08:27:17.241Z,25.94
2023-04-21T08:32:39.128Z,26.15
2023-04-21T08:38:01.063Z,26.26
2023-04-21T08:43:22.923Z,28.94
2023-04-21T08:48:46.804Z,26.80
2023-04-21T08:54:08.893Z,24.95
2023-04-21T08:59:31.111Z,24.51
2023-04-21T09:04:53.302Z,25.35
2023-04-21T09:10:21.955Z,23.85
2023-04-21T09:15:46.909Z,22.73
2023-04-21T09:21:10.805Z,22.81
2023-04-21T09:26:32.662Z,21.20
2023-04-21T09:31:54.670Z,21.90
2023-04-21T09:37:18.188Z,20.11
2023-04-21T09:42:43.120Z,19.61
2023-04-21T09:48:10.163Z,20.21
2023-04-21T09:53:34.603Z,20.03
2023-04-21T09:58:59.359Z,19.25
2023-04-21T10:04:22.111Z,19.49
2023-04-21T10:09:59.150Z,19.31
2023-04-21T10:15:30.029Z,19.01
2023-04-21T10:21:12.180Z,18.64
2023-04-21T10:26:35.356Z,18.59
2023-04-21T10:31:57.411Z,18.73
2023-04-21T10:37:19.495Z,18.76
2023-04-21T10:42:41.353Z,18.97
2023-04-21T10:48:13.604Z,18.82
2023-04-21T10:53:43.458Z,18.36
2023-04-21T10:59:05.375Z,18.60
2023-04-21T11:04:28.004Z,18.16
2023-04-21T11:10:02.119Z,18.97
2023-04-21T11:15:24.089Z,18.44
2023-04-21T11:20:45.978Z,18.98
2023-04-21T11:26:08.250Z,19.07
2023-04-21T11:31:30.493Z,18.27
2023-04-21T11:36:52.805Z,18.91
2023-04-21T11:42:21.433Z,19.20
2023-04-21T11:47:43.340Z,19.08
2023-04-21T11:53:06.500Z,18.92
2023-04-21T11:58:28.508Z,19.01
2023-04-21T12:03:55.200Z,19.36
2023-04-21T12:09:20.094Z,19.24
2023-04-21T12:14:44.919Z,19.12
2023-04-21T12:20:07.634Z,19.11
2023-04-21T12:25:29.498Z,19.32
2023-04-21T12:30:51.351Z,18.93
2023-04-21T12:36:13.287Z,19.56
2023-04-21T12:41:35.148Z,18.94
2023-04-21T12:46:57.802Z,19.44
2023-04-21T12:52:19.804Z,19.26
2023-04-21T12:57:41.827Z,19.78
2023-04-21T13:03:03.923Z,18.98
2023-04-21T13:08:26.059Z,19.30
2023-04-21T13:13:47.964Z,19.20
2023-04-21T13:19:09.948Z,19.80
2023-04-21T13:24:31.887Z,19.26
2023-04-21T13:29:54.054Z,19.44
2023-04-21T13:35:15.994Z,19.82
2023-04-21T13:40:37.890Z,19.60
2023-04-21T13:46:00.031Z,19.85
2023-04-21T13:51:22.143Z,19.75
2023-04-21T13:56:44.057Z,19.17
2023-04-21T14:02:06.022Z,19.86
2023-04-21T14:07:27.996Z,19.74
2023-04-21T14:12:49.859Z,19.67
2023-04-21T14:18:11.825Z,19.60
2023-04-21T14:23:33.800Z,19.78
2023-04-21T14:28:55.639Z,20.02
2023-04-21T14:34:17.472Z,20.02
2023-04-21T14:39:39.324Z,20.00
2023-04-21T14:45:01.264Z,19.72
2023-04-21T14:50:23.236Z,19.64
2023-04-21T14:55:45.103Z,19.84
2023-04-21T15:01:07.006Z,19.83
2023-04-21T15:06:28.997Z,19.80
2023-04-21T15:11:50.866Z,19.50
2023-04-21T15:17:12.823Z,19.45
2023-04-21T15:22:34.777Z,19.26
2023-04-21T15:27:56.718Z,18.99
2023-04-21T15:33:18.811Z,18.95
2023-04-21T15:38:40.713Z,19.21
2023-04-21T15:44:02.623Z,19.22
2023-04-21T15:49:33.457Z,19.22
2023-04-21T15:54:55.550Z,19.19
2023-04-21T16:00:17.660Z,19.18
2023-04-21T16:05:39.711Z,19.42
2023-04-21T16:11:01.786Z,18.79
2023-04-21T16:16:23.737Z,18.65
2023-04-21T16:21:45.830Z,18.67
2023-04-21T16:27:07.800Z,18.92
2023-04-21T16:32:29.744Z,18.83
2023-04-21T16:37:51.801Z,18.53
2023-04-21T16:43:13.677Z,18.56
2023-04-21T16:48:35.766Z,18.50
2023-04-21T16:53:57.648Z,18.44
2023-04-21T16:59:19.511Z,18.14
2023-04-21T17:04:41.436Z,17.81
2023-04-21T17:10:03.498Z,17.80
2023-04-21T17:15:25.431Z,17.54
2023-04-21T17:20:47.401Z,17.40
2023-04-21T17:26:10.857Z,17.24
2023-04-21T17:31:34.922Z,16.98
2023-04-21T17:36:56.928Z,17.00
2023-04-21T17:42:18.776Z,16.99
2023-04-21T17:47:40.662Z,16.80
2023-04-21T17:53:02.559Z,16.69
2023-04-21T17:58:27.739Z,16.65
2023-04-21T18:03:49.769Z,16.47
2023-04-21T18:09:11.866Z,16.32
2023-04-21T18:14:33.731Z,16.24
2023-04-21T18:19:55.527Z,16.13
2023-04-21T18:25:27.344Z,15.98
2023-04-21T18:31:00.204Z,15.85
2023-04-21T18:36:22.366Z,15.97
2023-04-21T18:41:44.433Z,15.74
2023-04-21T18:47:06.430Z,15.67
2023-04-21T18:52:28.372Z,15.59
2023-04-21T18:57:50.349Z,15.55
2023-04-21T19:03:12.466Z,15.49
2023-04-21T19:08:42.170Z,15.40
2023-04-21T19:14:04.752Z,15.38
2023-04-21T19:19:26.791Z,15.15
2023-04-21T19:24:48.614Z,15.06
2023-04-21T19:30:10.780Z,14.97
2023-04-21T19:35:32.691Z,14.93
2023-04-21T19:40:57.083Z,14.77
2023-04-21T19:46:19.020Z,14.64
2023-04-21T19:51:40.925Z,14.51
2023-04-21T19:57:03.206Z,14.35
2023-04-21T20:02:25.117Z,14.24
2023-04-21T20:07:47.004Z,14.10
2023-04-21T20:13:08.921Z,13.80
2023-04-21T20:18:30.835Z,13.88
2023-04-21T20:23:52.685Z,13.69
2023-04-21T20:29:14.761Z,13.58
2023-04-21T20:34:36.641Z,13.55
2023-04-21T20:39:58.506Z,13.57
2023-04-21T20:45:20.305Z,13.46
2023-04-21T20:50:44.023Z,13.37
2023-04-21T20:56:07.686Z,13.17
2023-04-21T21:01:30.728Z,13.18
2023-04-21T21:06:52.772Z,13.17
2023-04-21T21:12:14.610Z,13.13
2023-04-21T21:17:36.516Z,12.90
2023-04-21T21:22:58.389Z,12.95
2023-04-21T21:28:20.253Z,12.88
2023-04-21T21:33:42.190Z,12.80
2023-04-21T21:39:04.110Z,12.79
2023-04-21T21:44:25.973Z,12.69
2023-04-21T21:49:48.295Z,12.66
2023-04-21T21:55:10.217Z,12.58
2023-04-21T22:00:32.087Z,12.50
2023-04-21T22:05:53.972Z,12.43
2023-04-21T22:11:15.881Z,12.26
2023-04-21T22:16:38.077Z,12.23
2023-04-21T22:22:00.221Z,12.31
2023-04-21T22:27:22.224Z,12.17
2023-04-21T22:32:44.136Z,11.96
2023-04-21T22:38:06.286Z,11.88
2023-04-21T22:43:28.165Z,11.81
2023-04-21T22:48:50.148Z,11.69
2023-04-21T22:54:11.966Z,11.47
2023-04-21T22:59:34.398Z,11.39
2023-04-21T23:04:56.338Z,11.27
2023-04-21T23:10:18.507Z,11.18
2023-04-21T23:15:40.453Z,11.10
2023-04-21T23:21:02.418Z,11.02
2023-04-21T23:26:24.280Z,10.87
2023-04-21T23:31:46.241Z,10.77
2023-04-21T23:37:08.117Z,10.71
2023-04-21T23:42:30.112Z,10.62
2023-04-21T23:47:52.196Z,10.62
2023-04-21T23:53:14.087Z,10.51
2023-04-21T23:58:35.926Z,10.47
